createdAt,value
2022-11-04T00:02:08.243Z,12.20
2022-11-04T00:04:36.554Z,12.20
2022-11-04T00:07:26.295Z,12.10
2022-11-04T00:09:54.679Z,12.10
2022-11-04T00:12:27.797Z,12.10
2022-11-04T00:15:16.039Z,12.10
2022-11-04T00:17:43.341Z,12.10
2022-11-04T00:20:30.090Z,12.20
2022-11-04T00:23:25.322Z,12.20
2022-11-04T00:26:11.277Z,12.20
2022-11-04T00:28:45.926Z,12.30
2022-11-04T00:31:31.666Z,12.20
2022-11-04T00:34:00.439Z,12.20
2022-11-04T00:36:28.822Z,12.20
2022-11-04T00:38:58.916Z,12.20
2022-11-04T00:41:28.944Z,12.20
2022-11-04T00:43:58.692Z,12.10
2022-11-04T00:46:27.989Z,12.10
2022-11-04T00:48:56.571Z,12.10
2022-11-04T00:51:25.126Z,12.10
2022-11-04T00:53:53.950Z,12.00
2022-11-04T00:56:23.734Z,12.00
2022-11-04T00:58:52.342Z,11.90
2022-11-04T01:01:21.584Z,11.90
2022-11-04T01:03:52.322Z,11.90
2022-11-04T01:06:22.466Z,11.80
2022-11-04T01:08:55.928Z,11.80
2022-11-04T01:11:26.378Z,11.80
2022-11-04T01:13:55.001Z,11.80
2022-11-04T01:16:24.425Z,11.80
2022-11-04T01:18:53.492Z,11.80
2022-11-04T01:21:21.987Z,11.70
2022-11-04T01:23:50.262Z,11.70
2022-11-04T01:26:20.410Z,11.70
2022-11-04T01:28:50.460Z,11.70
2022-11-04T01:31:21.570Z,11.60
2022-11-04T01:33:50.518Z,11.70
2022-11-04T01:36:19.454Z,11.60
2022-11-04T01:38:47.850Z,11.60
2022-11-04T01:41:21.400Z,11.50
2022-11-04T01:43:52.873Z,11.50
2022-11-04T01:46:38.734Z,11.50
2022-11-04T01:49:20.485Z,11.50
2022-11-04T01:51:52.754Z,11.50
2022-11-04T01:54:21.781Z,11.40
2022-11-04T01:56:51.778Z,11.40
2022-11-04T01:59:28.631Z,11.40
2022-11-04T02:01:57.200Z,11.30
2022-11-04T02:04:30.193Z,11.30
2022-11-04T02:07:00.948Z,11.30
2022-11-04T02:09:30.993Z,11.30
2022-11-04T02:12:16.752Z,11.20
2022-11-04T02:14:49.360Z,11.30
2022-11-04T02:17:37.996Z,11.30
2022-11-04T02:20:20.052Z,11.20
2022-11-04T02:23:12.065Z,11.30
2022-11-04T02:26:10.792Z,11.30
2022-11-04T02:29:07.207Z,11.30
2022-11-04T02:31:42.344Z,11.30
2022-11-04T02:34:19.712Z,11.30
2022-11-04T02:36:59.308Z,11.40
2022-11-04T02:39:37.891Z,11.40
2022-11-04T02:42:14.215Z,11.30
2022-11-04T02:44:50.033Z,11.30
2022-11-04T02:47:22.403Z,11.20
2022-11-04T02:49:57.428Z,11.10
2022-11-04T02:52:33.967Z,11.10
2022-11-04T02:55:05.680Z,11.00
2022-11-04T02:57:37.426Z,11.00
2022-11-04T03:00:10.371Z,11.00
2022-11-04T03:02:43.029Z,10.90
2022-11-04T03:05:15.949Z,11.00
2022-11-04T03:07:48.420Z,11.00
2022-11-04T03:10:23.248Z,11.00
2022-11-04T03:12:55.951Z,10.90
2022-11-04T03:15:30.600Z,10.90
2022-11-04T03:18:05.156Z,10.90
2022-11-04T03:20:33.781Z,10.90
2022-11-04T03:23:02.599Z,10.90
2022-11-04T03:25:37.425Z,10.80
2022-11-04T03:28:13.909Z,10.80
2022-11-04T03:30:46.393Z,10.70
2022-11-04T03:33:21.664Z,10.70
2022-11-04T03:35:50.250Z,10.60
2022-11-04T03:38:18.768Z,10.60
2022-11-04T03:40:47.494Z,10.60
2022-11-04T03:43:20.604Z,10.60
2022-11-04T03:45:51.554Z,10.60
2022-11-04T03:48:20.248Z,10.60
2022-11-04T03:50:51.021Z,10.60
2022-11-04T03:53:22.986Z,10.60
2022-11-04T03:56:10.131Z,10.60
2022-11-04T03:58:45.999Z,10.60
2022-11-04T04:01:26.422Z,10.60
2022-11-04T04:04:00.460Z,10.60
2022-11-04T04:06:32.541Z,10.60
2022-11-04T04:09:09.575Z,10.60
2022-11-04T04:11:43.981Z,10.60
2022-11-04T04:14:39.201Z,10.60
2022-11-04T04:17:15.600Z,10.50
2022-11-04T04:19:47.379Z,10.50
2022-11-04T04:22:19.382Z,10.50
2022-11-04T04:25:09.262Z,10.50
2022-11-04T04:27:39.625Z,10.50
2022-11-04T04:30:10.254Z,10.50
2022-11-04T04:32:43.248Z,10.50
2022-11-04T04:35:29.701Z,10.40
2022-11-04T04:38:16.658Z,10.40
2022-11-04T04:41:05.822Z,10.40
2022-11-04T04:43:51.439Z,10.40
2022-11-04T04:46:20.628Z,10.30
2022-11-04T04:48:50.346Z,10.30
2022-11-04T04:51:20.749Z,10.30
2022-11-04T04:53:49.161Z,10.30
2022-11-04T04:56:17.443Z,10.30
2022-11-04T04:58:45.934Z,10.30
2022-11-04T05:01:14.764Z,10.30
2022-11-04T05:03:45.334Z,10.30
2022-11-04T05:06:15.187Z,10.30
2022-11-04T05:08:43.759Z,10.30
2022-11-04T05:11:12.051Z,10.30
2022-11-04T05:13:41.042Z,10.30
2022-11-04T05:16:11.942Z,10.40
2022-11-04T05:18:40.392Z,10.30
2022-11-04T05:21:12.093Z,10.30
2022-11-04T05:23:41.874Z,10.30
2022-11-04T05:26:10.275Z,10.30
2022-11-04T05:28:38.689Z,10.30
2022-11-04T05:31:07.948Z,10.30
2022-11-04T05:33:36.250Z,10.20
2022-11-04T05:36:09.021Z,10.20
2022-11-04T05:38:37.695Z,10.20
2022-11-04T05:41:09.623Z,10.20
2022-11-04T05:43:38.654Z,10.10
2022-11-04T05:46:07.164Z,10.10
2022-11-04T05:48:40.722Z,10.00
2022-11-04T05:51:10.341Z,10.00
2022-11-04T05:53:38.599Z,9.90
2022-11-04T05:56:09.324Z,9.90
2022-11-04T05:58:38.553Z,9.90
2022-11-04T06:01:26.635Z,9.80
2022-11-04T06:03:57.583Z,9.80
2022-11-04T06:06:27.736Z,9.80
2022-11-04T06:08:56.833Z,9.80
2022-11-04T06:11:28.189Z,9.80
2022-11-04T06:13:57.448Z,9.80
2022-11-04T06:16:26.553Z,9.80
2022-11-04T06:18:59.887Z,9.80
2022-11-04T06:21:34.020Z,9.90
2022-11-04T06:24:02.528Z,9.90
2022-11-04T06:26:32.582Z,9.90
2022-11-04T06:29:01.244Z,9.90
2022-11-04T06:31:30.928Z,10.00
2022-11-04T06:33:59.196Z,10.00
2022-11-04T06:36:31.025Z,10.00
2022-11-04T06:39:04.459Z,10.00
2022-11-04T06:41:34.849Z,10.00
2022-11-04T06:44:03.171Z,10.00
2022-11-04T06:46:35.803Z,10.00
2022-11-04T06:49:05.275Z,10.00
2022-11-04T06:51:34.260Z,10.10
2022-11-04T06:54:02.801Z,10.10
2022-11-04T06:56:31.456Z,10.20
2022-11-04T06:59:01.078Z,10.20
2022-11-04T07:01:31.707Z,10.30
2022-11-04T07:04:01.844Z,10.30
2022-11-04T07:06:30.674Z,10.40
2022-11-04T07:09:01.275Z,10.40
2022-11-04T07:11:31.615Z,10.40
2022-11-04T07:14:01.766Z,10.40
2022-11-04T07:16:30.108Z,10.50
2022-11-04T07:18:58.555Z,10.50
2022-11-04T07:21:27.425Z,10.50
2022-11-04T07:23:55.812Z,10.50
2022-11-04T07:26:24.497Z,10.60
2022-11-04T07:28:52.882Z,10.60
2022-11-04T07:31:23.452Z,10.70
2022-11-04T07:33:51.935Z,10.70
2022-11-04T07:36:22.089Z,10.80
2022-11-04T07:38:50.646Z,10.90
2022-11-04T07:41:20.095Z,11.00
2022-11-04T07:43:52.037Z,11.10
2022-11-04T07:46:22.971Z,11.20
2022-11-04T07:48:51.549Z,11.40
2022-11-04T07:51:23.413Z,11.40
2022-11-04T07:53:51.958Z,11.50
2022-11-04T07:56:20.660Z,11.60
2022-11-04T07:58:50.461Z,11.70
2022-11-04T08:01:23.435Z,11.80
2022-11-04T08:03:53.608Z,11.90
2022-11-04T08:06:22.963Z,11.90
2022-11-04T08:08:54.291Z,11.90
2022-11-04T08:11:25.568Z,12.00
2022-11-04T08:13:54.096Z,12.00
2022-11-04T08:16:23.946Z,12.00
2022-11-04T08:18:53.901Z,12.00
2022-11-04T08:21:22.697Z,12.00
2022-11-04T08:23:51.725Z,12.00
2022-11-04T08:26:23.483Z,12.10
2022-11-04T08:28:52.618Z,12.10
2022-11-04T08:31:24.512Z,12.10
2022-11-04T08:33:54.957Z,12.10
2022-11-04T08:36:25.333Z,12.20
2022-11-04T08:38:53.995Z,12.20
2022-11-04T08:41:24.556Z,12.30
2022-11-04T08:43:53.023Z,12.30
2022-11-04T08:46:21.684Z,12.30
2022-11-04T08:48:50.651Z,12.50
2022-11-04T08:51:23.051Z,12.50
2022-11-04T08:53:51.616Z,12.60
2022-11-04T08:56:22.130Z,12.70
2022-11-04T08:58:51.888Z,12.80
2022-11-04T09:01:21.991Z,12.90
2022-11-04T09:03:51.635Z,13.00
2022-11-04T09:06:23.522Z,13.00
2022-11-04T09:08:52.331Z,13.10
2022-11-04T09:11:20.585Z,13.10
2022-11-04T09:13:49.229Z,13.20
2022-11-04T09:16:17.712Z,13.30
2022-11-04T09:18:46.197Z,13.40
2022-11-04T09:21:14.572Z,13.50
2022-11-04T09:23:44.297Z,13.50
2022-11-04T09:26:14.990Z,13.60
2022-11-04T09:28:43.728Z,13.70
2022-11-04T09:31:13.704Z,13.90
2022-11-04T09:33:42.651Z,14.00
2022-11-04T09:36:12.705Z,14.10
2022-11-04T09:38:43.751Z,14.20
2022-11-04T09:41:44.057Z,14.30
2022-11-04T09:44:23.153Z,14.40
2022-11-04T09:46:53.961Z,14.60
2022-11-04T09:49:23.237Z,14.60
2022-11-04T09:51:55.445Z,14.60
2022-11-04T09:54:28.102Z,14.70
2022-11-04T09:57:00.557Z,14.80
2022-11-04T09:59:32.126Z,14.80
2022-11-04T10:02:36.101Z,14.70
2022-11-04T10:05:18.001Z,14.70
2022-11-04T10:08:09.218Z,14.60
2022-11-04T10:10:45.990Z,14.60
2022-11-04T10:13:26.561Z,14.60
2022-11-04T10:16:15.226Z,14.60
2022-11-04T10:19:12.982Z,14.70
2022-11-04T10:21:50.474Z,14.80
2022-11-04T10:24:21.809Z,15.00
2022-11-04T10:27:00.750Z,15.00
2022-11-04T10:29:33.972Z,15.10
2022-11-04T10:32:08.068Z,15.20
2022-11-04T10:34:41.674Z,15.20
2022-11-04T10:37:12.195Z,15.20
2022-11-04T10:39:44.241Z,15.10
2022-11-04T10:42:18.102Z,15.10
2022-11-04T10:44:47.753Z,15.00
2022-11-04T10:47:31.470Z,14.90
2022-11-04T10:50:29.038Z,14.80
2022-11-04T10:53:12.175Z,14.80
2022-11-04T10:55:49.022Z,14.60
2022-11-04T10:58:24.299Z,14.50
2022-11-04T11:00:53.591Z,14.50
2022-11-04T11:03:29.543Z,14.40
2022-11-04T11:06:16.950Z,14.40
2022-11-04T11:08:45.807Z,14.40
2022-11-04T11:11:15.367Z,14.40
2022-11-04T11:13:46.793Z,14.50
2022-11-04T11:16:20.233Z,14.50
2022-11-04T11:19:14.081Z,14.60
2022-11-04T11:21:45.509Z,14.70
2022-11-04T11:24:21.340Z,14.70
2022-11-04T11:26:53.291Z,14.80
2022-11-04T11:29:26.586Z,14.80
2022-11-04T11:31:55.992Z,14.70
2022-11-04T11:34:27.533Z,14.70
2022-11-04T11:36:57.665Z,14.70
2022-11-04T11:39:28.621Z,14.60
2022-11-04T11:42:00.923Z,14.60
2022-11-04T11:44:34.256Z,14.60
2022-11-04T11:47:04.893Z,14.60
2022-11-04T11:49:35.979Z,14.60
2022-11-04T11:52:33.207Z,14.70
2022-11-04T11:55:08.696Z,14.70
2022-11-04T12:00:56.665Z,15.00
2022-11-04T12:09:34.805Z,15.00
2022-11-04T12:12:19.760Z,15.10
2022-11-04T12:15:01.103Z,15.10
2022-11-04T12:17:43.748Z,15.20
2022-11-04T12:20:38.768Z,15.30
2022-11-04T12:23:17.696Z,15.40
2022-11-04T12:25:53.856Z,15.50
2022-11-04T12:28:32.628Z,15.60
2022-11-04T12:31:16.393Z,15.70
2022-11-04T12:33:54.893Z,15.80
2022-11-04T12:36:42.631Z,16.00
2022-11-04T12:39:33.701Z,16.20
2022-11-04T12:42:22.995Z,16.40
2022-11-04T12:45:03.737Z,16.70
2022-11-04T12:47:37.912Z,16.90
2022-11-04T12:50:33.250Z,17.20
2022-11-04T12:53:17.859Z,17.70
2022-11-04T12:55:57.435Z,18.30
2022-11-04T12:58:41.080Z,18.90
2022-11-04T13:01:15.658Z,19.10
2022-11-04T13:03:53.494Z,19.10
2022-11-04T13:06:28.161Z,19.00
2022-11-04T13:09:03.232Z,19.40
2022-11-04T13:11:37.941Z,20.00
2022-11-04T13:14:10.778Z,21.00
2022-11-04T13:16:42.949Z,22.00
2022-11-04T13:19:31.667Z,22.90
2022-11-04T13:22:07.034Z,23.60
2022-11-04T13:24:39.186Z,24.20
2022-11-04T13:27:19.396Z,24.50
2022-11-04T13:29:50.809Z,24.50
2022-11-04T13:32:27.146Z,24.60
2022-11-04T13:35:01.137Z,24.50
2022-11-04T13:37:35.133Z,24.60
2022-11-04T13:40:08.057Z,24.50
2022-11-04T13:42:55.428Z,25.00
2022-11-04T13:45:23.810Z,25.50
2022-11-04T13:47:56.297Z,25.70
2022-11-04T13:50:36.747Z,26.00
2022-11-04T13:53:09.471Z,26.20
2022-11-04T13:55:50.000Z,26.60
2022-11-04T13:58:26.092Z,26.60
2022-11-04T14:01:18.870Z,26.40
2022-11-04T14:03:56.228Z,25.80
2022-11-04T14:06:51.444Z,25.20
2022-11-04T14:09:59.682Z,24.60
2022-11-04T14:12:31.603Z,23.60
2022-11-04T14:15:16.510Z,22.50
2022-11-04T14:18:01.622Z,21.40
2022-11-04T14:20:37.103Z,20.40
2022-11-04T14:23:08.952Z,19.60
2022-11-04T14:25:41.366Z,19.00
2022-11-04T14:28:27.055Z,18.50
2022-11-04T14:30:57.367Z,18.00
2022-11-04T14:33:51.555Z,17.50
2022-11-04T14:36:36.459Z,17.20
2022-11-04T14:39:22.398Z,16.90
2022-11-04T14:42:00.676Z,16.80
2022-11-04T14:44:35.409Z,16.70
2022-11-04T14:47:15.947Z,16.60
2022-11-04T14:49:46.927Z,16.50
2022-11-04T14:52:22.995Z,16.40
2022-11-04T14:54:57.403Z,16.30
2022-11-04T14:57:30.224Z,16.10
2022-11-04T14:59:58.578Z,16.00
2022-11-04T15:02:31.534Z,15.80
2022-11-04T15:05:01.611Z,15.70
2022-11-04T15:07:38.074Z,15.50
2022-11-04T15:10:21.516Z,15.40
2022-11-04T15:12:51.686Z,15.30
2022-11-04T15:15:36.060Z,15.10
2022-11-04T15:18:08.901Z,15.00
2022-11-04T15:20:42.597Z,14.90
2022-11-04T15:23:17.661Z,14.80
2022-11-04T15:25:48.061Z,14.70
2022-11-04T15:28:28.172Z,14.60
2022-11-04T15:31:17.604Z,14.50
2022-11-04T15:33:49.084Z,14.40
2022-11-04T15:36:21.173Z,14.20
2022-11-04T15:38:55.110Z,14.20
2022-11-04T15:41:42.751Z,14.10
2022-11-04T15:44:22.601Z,14.10
2022-11-04T15:46:53.040Z,14.00
2022-11-04T15:49:25.461Z,13.90
2022-11-04T15:51:57.098Z,13.90
2022-11-04T15:54:29.642Z,13.90
2022-11-04T15:57:01.206Z,13.80
2022-11-04T15:59:33.528Z,13.80
2022-11-04T16:02:04.806Z,13.70
2022-11-04T16:04:33.774Z,13.70
2022-11-04T16:07:11.279Z,13.60
2022-11-04T16:09:50.588Z,13.60
2022-11-04T16:12:28.063Z,13.60
2022-11-04T16:14:59.688Z,13.50
2022-11-04T16:17:29.427Z,13.50
2022-11-04T16:19:59.958Z,13.40
2022-11-04T16:22:31.233Z,13.40
2022-11-04T16:25:01.673Z,13.40
2022-11-04T16:27:33.274Z,13.40
2022-11-04T16:30:10.833Z,13.40
2022-11-04T16:32:45.573Z,13.40
2022-11-04T16:35:20.331Z,13.40
2022-11-04T16:37:48.972Z,13.30
2022-11-04T16:40:17.864Z,13.30
2022-11-04T16:42:47.791Z,13.30
2022-11-04T16:45:26.113Z,13.30
2022-11-04T16:47:55.061Z,13.30
2022-11-04T16:50:24.488Z,13.30
2022-11-04T16:52:53.900Z,13.20
2022-11-04T16:55:23.978Z,13.20
2022-11-04T16:57:58.968Z,13.20
2022-11-04T17:00:33.061Z,13.20
2022-11-04T17:03:01.955Z,13.10
2022-11-04T17:05:30.380Z,13.10
2022-11-04T17:08:04.764Z,13.10
2022-11-04T17:10:36.318Z,13.00
2022-11-04T17:13:04.966Z,13.00
2022-11-04T17:15:35.163Z,12.90
2022-11-04T17:18:03.912Z,12.90
2022-11-04T17:20:33.184Z,12.90
2022-11-04T17:23:02.289Z,12.90
2022-11-04T17:25:31.560Z,12.80
2022-11-04T17:28:00.592Z,12.80
2022-11-04T17:30:29.087Z,12.80
2022-11-04T17:32:58.935Z,12.70
2022-11-04T17:35:27.684Z,12.50
2022-11-04T17:37:56.360Z,12.40
2022-11-04T17:40:26.081Z,12.40
2022-11-04T17:43:12.533Z,12.30
2022-11-04T17:45:42.398Z,12.20
2022-11-04T17:48:14.979Z,12.10
2022-11-04T17:50:43.976Z,12.00
2022-11-04T17:53:12.694Z,11.90
2022-11-04T17:55:44.210Z,11.90
2022-11-04T17:58:12.550Z,11.90
2022-11-04T18:00:40.890Z,11.90
2022-11-04T18:03:12.489Z,11.70
2022-11-04T18:05:42.562Z,11.70
2022-11-04T18:08:11.565Z,11.70
2022-11-04T18:10:40.280Z,11.70
2022-11-04T18:13:08.158Z,11.60
2022-11-04T18:15:36.716Z,11.70
2022-11-04T18:18:05.304Z,11.60
2022-11-04T18:20:34.306Z,11.70
2022-11-04T18:23:03.935Z,11.70
2022-11-04T18:25:32.446Z,11.70
2022-11-04T18:28:02.263Z,11.70
2022-11-04T18:30:30.723Z,11.70
2022-11-04T18:32:59.188Z,11.70
2022-11-04T18:35:27.526Z,11.60
2022-11-04T18:37:56.107Z,11.60
2022-11-04T18:40:27.000Z,11.50
2022-11-04T18:42:55.633Z,11.40
2022-11-04T18:45:24.829Z,11.30
2022-11-04T18:47:53.100Z,11.20
2022-11-04T18:50:21.652Z,11.10
2022-11-04T18:52:54.312Z,11.00
2022-11-04T18:55:23.841Z,11.10
2022-11-04T18:57:56.637Z,11.10
2022-11-04T19:00:25.058Z,11.10
2022-11-04T19:02:53.514Z,11.00
2022-11-04T19:05:22.474Z,11.00
2022-11-04T19:07:50.982Z,11.00
2022-11-04T19:10:19.498Z,10.90
2022-11-04T19:13:05.739Z,10.90
2022-11-04T19:15:36.481Z,10.80
2022-11-04T19:18:05.062Z,10.80
2022-11-04T19:20:33.477Z,10.80
2022-11-04T19:23:01.768Z,10.80
2022-11-04T19:25:30.820Z,10.80
2022-11-04T19:28:26.442Z,10.70
2022-11-04T19:30:58.525Z,10.70
2022-11-04T19:33:26.976Z,10.80
2022-11-04T19:35:56.000Z,10.80
2022-11-04T19:38:24.625Z,10.80
2022-11-04T19:40:55.080Z,10.80
2022-11-04T19:43:23.411Z,10.80
2022-11-04T19:45:53.518Z,10.80
2022-11-04T19:48:22.211Z,10.90
2022-11-04T19:50:50.860Z,10.90
2022-11-04T19:53:19.544Z,10.90
2022-11-04T19:55:52.138Z,10.90
2022-11-04T19:58:20.610Z,11.00
2022-11-04T20:00:49.846Z,11.00
2022-11-04T20:03:19.767Z,11.00
2022-11-04T20:05:48.376Z,11.00
2022-11-04T20:08:16.661Z,11.00
2022-11-04T20:10:44.997Z,11.00
2022-11-04T20:13:33.852Z,11.00
2022-11-04T20:16:03.080Z,11.00
2022-11-04T20:18:33.019Z,11.00
2022-11-04T20:21:04.271Z,11.00
2022-11-04T20:23:32.954Z,11.00
2022-11-04T20:26:08.093Z,11.10
2022-11-04T20:28:36.811Z,11.10
2022-11-04T20:31:10.971Z,11.10
2022-11-04T20:33:41.876Z,11.10
2022-11-04T20:36:10.934Z,11.10
2022-11-04T20:38:39.525Z,11.10
2022-11-04T20:41:10.869Z,11.10
2022-11-04T20:43:41.026Z,11.10
2022-11-04T20:46:11.527Z,11.10
2022-11-04T20:48:43.158Z,11.10
2022-11-04T20:51:14.036Z,11.20
2022-11-04T20:53:43.187Z,11.20
2022-11-04T20:56:14.382Z,11.20
2022-11-04T20:58:44.671Z,11.20
2022-11-04T21:01:15.437Z,11.20
2022-11-04T21:03:45.924Z,11.20
2022-11-04T21:06:14.556Z,11.20
2022-11-04T21:08:42.990Z,11.20
2022-11-04T21:11:11.310Z,11.20
2022-11-04T21:13:40.306Z,11.20
2022-11-04T21:16:09.091Z,11.20
2022-11-04T21:18:37.525Z,11.20
2022-11-04T21:21:09.244Z,11.20
2022-11-04T21:23:37.639Z,11.20
2022-11-04T21:26:11.027Z,11.20
2022-11-04T21:28:39.535Z,11.20
2022-11-04T21:31:11.053Z,11.20
2022-11-04T21:33:39.826Z,11.20
2022-11-04T21:36:13.253Z,11.20
2022-11-04T21:38:42.219Z,11.20
2022-11-04T21:41:12.968Z,11.20
2022-11-04T21:43:41.904Z,11.20
2022-11-04T21:46:13.296Z,11.20
2022-11-04T21:48:42.545Z,11.20
2022-11-04T21:51:13.676Z,11.20
2022-11-04T21:53:45.000Z,11.20
2022-11-04T21:56:15.901Z,11.20
2022-11-04T21:58:44.845Z,11.20
2022-11-04T22:01:15.449Z,11.20
2022-11-04T22:03:44.039Z,11.20
2022-11-04T22:06:14.537Z,11.20
2022-11-04T22:08:45.134Z,11.20
2022-11-04T22:11:15.846Z,11.20
2022-11-04T22:13:45.382Z,11.20
2022-11-04T22:16:15.008Z,11.20
2022-11-04T22:18:43.456Z,11.30
2022-11-04T22:21:14.813Z,11.30
2022-11-04T22:23:44.077Z,11.20
2022-11-04T22:26:14.642Z,11.20
2022-11-04T22:28:44.030Z,11.20
2022-11-04T22:31:14.859Z,11.20
2022-11-04T22:33:44.519Z,11.30
2022-11-04T22:36:14.794Z,11.30
2022-11-04T22:38:43.938Z,11.30
2022-11-04T22:41:15.292Z,11.30
2022-11-04T22:43:43.626Z,11.30
2022-11-04T22:46:14.527Z,11.30
2022-11-04T22:48:43.056Z,11.20
2022-11-04T22:51:11.400Z,11.20
2022-11-04T22:53:41.529Z,11.20
2022-11-04T22:56:12.861Z,11.20
2022-11-04T22:58:41.380Z,11.20
2022-11-04T23:01:12.075Z,11.20
2022-11-04T23:03:41.184Z,11.20
2022-11-04T23:06:11.086Z,11.20
2022-11-04T23:08:42.360Z,11.20
2022-11-04T23:11:34.339Z,11.10
2022-11-04T23:14:21.047Z,11.10
2022-11-04T23:17:09.364Z,11.10
2022-11-04T23:19:38.064Z,11.00
2022-11-04T23:22:24.158Z,11.00
2022-11-04T23:25:10.430Z,11.00
2022-11-04T23:27:58.824Z,11.00
2022-11-04T23:30:29.064Z,10.90
2022-11-04T23:32:59.058Z,11.00
2022-11-04T23:35:47.050Z,10.90
2022-11-04T23:38:15.603Z,11.00
2022-11-04T23:41:05.945Z,11.00
2022-11-04T23:43:33.285Z,11.00
2022-11-04T23:46:19.242Z,10.90
2022-11-04T23:49:05.192Z,10.90
2022-11-04T23:51:50.864Z,10.90
2022-11-04T23:54:36.726Z,10.90
2022-11-04T23:57:30.046Z,10.90
